TimeCDT,TemperatureF,Dew PointF,Humidity,Sea Level PressureIn,VisibilityMPH,Wind Direction,Wind SpeedMPH,Gust SpeedMPH,PrecipitationIn,Events,Conditions,WindDirDegrees,DateUTC
12:14 AM,44.6,39.2,81,29.95,10.0,West,11.5,23.0,N/A,,Mostly Cloudy,280,2013-10-13 05:14:00
12:34 AM,44.6,39.2,81,29.95,10.0,WNW,10.4,18.4,N/A,,Overcast,290,2013-10-13 05:34:00
12:53 AM,44.6,39.2,81,29.97,4.0,West,11.5,24.2,N/A,,Haze,280,2013-10-13 05:53:00
1:14 AM,42.8,37.4,81,29.98,10.0,WNW,9.2,20.7,N/A,,Overcast,290,2013-10-13 06:14:00
1:34 AM,44.6,37.4,76,29.99,10.0,WNW,8.1,18.4,N/A,,Overcast,290,2013-10-13 06:34:00
1:53 AM,44.6,37.4,76,30.01,10.0,West,9.2,20.7,N/A,,Overcast,270,2013-10-13 06:53:00
2:13 AM,42.8,37.4,81,30.02,10.0,NW,10.4,17.3,N/A,,Overcast,310,2013-10-13 07:13:00
2:34 AM,42.8,35.6,76,30.03,10.0,West,8.1,18.4,N/A,,Scattered Clouds,280,2013-10-13 07:34:00
2:53 AM,42.8,35.6,76,30.05,10.0,WNW,9.2,24.2,N/A,,Mostly Cloudy,300,2013-10-13 07:53:00
3:14 AM,42.8,35.6,76,30.06,10.0,WNW,8.1,17.3,N/A,,Mostly Cloudy,290,2013-10-13 08:14:00
3:33 AM,42.8,33.8,70,30.08,10.0,WNW,8.1,-,N/A,,Mostly Cloudy,300,2013-10-13 08:33:00
3:54 AM,41.0,35.6,81,30.10,5.0,WNW,6.9,-,N/A,,Haze,300,2013-10-13 08:54:00
4:13 AM,41.0,35.6,81,30.11,10.0,West,6.9,-,N/A,,Overcast,280,2013-10-13 09:13:00
4:33 AM,39.2,33.8,81,30.12,10.0,WNW,9.2,17.3,N/A,,Scattered Clouds,300,2013-10-13 09:33:00
4:54 AM,39.2,33.8,81,30.13,10.0,WNW,5.8,-,N/A,,Clear,300,2013-10-13 09:54:00
5:13 AM,37.4,33.8,87,30.14,10.0,WNW,8.1,-,N/A,,Clear,300,2013-10-13 10:13:00
5:34 AM,37.4,33.8,87,30.15,10.0,NW,6.9,16.1,N/A,,Scattered Clouds,310,2013-10-13 10:34:00
5:53 AM,37.4,32.0,81,30.16,10.0,NW,11.5,16.1,N/A,,Scattered Clouds,310,2013-10-13 10:53:00
6:13 AM,39.2,33.8,81,30.17,10.0,NW,11.5,20.7,N/A,,Mostly Cloudy,310,2013-10-13 11:13:00
6:33 AM,37.4,32.0,81,30.17,10.0,WNW,9.2,17.3,N/A,,Scattered Clouds,300,2013-10-13 11:33:00
6:54 AM,37.4,32.0,81,30.18,10.0,WNW,6.9,-,N/A,,Clear,300,2013-10-13 11:54:00
7:13 AM,37.4,32.0,81,30.19,10.0,NW,5.8,-,N/A,,Clear,310,2013-10-13 12:13:00
7:33 AM,37.4,32.0,81,30.21,10.0,WNW,4.6,-,N/A,,Clear,290,2013-10-13 12:33:00
7:54 AM,37.4,32.0,81,30.22,10.0,WNW,5.8,-,N/A,,Clear,290,2013-10-13 12:54:00
8:13 AM,37.4,33.8,87,30.23,10.0,WNW,4.6,-,N/A,,Clear,290,2013-10-13 13:13:00
8:34 AM,39.2,32.0,75,30.24,10.0,WNW,5.8,-,N/A,,Clear,300,2013-10-13 13:34:00
8:53 AM,39.2,32.0,75,30.25,10.0,WNW,6.9,-,N/A,,Clear,300,2013-10-13 13:53:00
9:14 AM,42.8,33.8,70,30.26,10.0,West,5.8,-,N/A,,Clear,270,2013-10-13 14:14:00
9:33 AM,41.0,32.0,70,30.27,10.0,West,3.5,-,N/A,,Clear,270,2013-10-13 14:33:00
9:53 AM,42.8,32.0,66,30.28,10.0,WNW,3.5,-,N/A,,Clear,290,2013-10-13 14:53:00
10:13 AM,42.8,32.0,66,30.30,10.0,WSW,3.5,-,N/A,,Clear,250,2013-10-13 15:13:00
10:33 AM,42.8,32.0,66,30.30,10.0,West,5.8,-,N/A,,Clear,260,2013-10-13 15:33:00
10:54 AM,46.4,30.2,53,30.31,10.0,West,6.9,-,N/A,,Clear,270,2013-10-13 15:54:00
11:13 AM,46.4,30.2,53,30.31,10.0,WSW,3.5,-,N/A,,Clear,250,2013-10-13 16:13:00
11:34 AM,48.2,28.4,46,30.32,10.0,WSW,8.1,-,N/A,,Clear,250,2013-10-13 16:34:00
11:53 AM,48.2,26.6,43,30.32,10.0,WSW,9.2,18.4,N/A,,Clear,240,2013-10-13 16:53:00
12:13 PM,48.2,26.6,43,30.33,10.0,West,10.4,18.4,N/A,,Scattered Clouds,280,2013-10-13 17:13:00
12:33 PM,50.0,26.6,40,30.33,10.0,WNW,10.4,19.6,N/A,,Clear,290,2013-10-13 17:33:00
12:53 PM,48.2,26.6,43,30.32,10.0,WNW,9.2,-,N/A,,Scattered Clouds,290,2013-10-13 17:53:00
1:14 PM,51.8,28.4,41,30.32,10.0,West,4.6,16.1,N/A,,Scattered Clouds,280,2013-10-13 18:14:00
1:33 PM,51.8,26.6,38,30.31,10.0,WSW,9.2,16.1,N/A,,Scattered Clouds,240,2013-10-13 18:33:00
1:53 PM,51.8,26.6,38,30.31,10.0,West,6.9,-,N/A,,Scattered Clouds,280,2013-10-13 18:53:00
2:14 PM,51.8,26.6,38,30.31,10.0,SW,6.9,16.1,N/A,,Scattered Clouds,220,2013-10-13 19:14:00
2:33 PM,51.8,26.6,38,30.31,10.0,WSW,8.1,-,N/A,,Scattered Clouds,250,2013-10-13 19:33:00
2:53 PM,51.8,26.6,38,30.31,10.0,SW,8.1,18.4,N/A,,Scattered Clouds,230,2013-10-13 19:53:00
3:14 PM,51.8,28.4,41,30.31,10.0,SW,11.5,18.4,N/A,,Scattered Clouds,230,2013-10-13 20:14:00
3:33 PM,51.8,26.6,38,30.30,10.0,SW,10.4,16.1,N/A,,Scattered Clouds,230,2013-10-13 20:33:00
3:54 PM,51.8,26.6,38,30.30,10.0,SW,10.4,18.4,N/A,,Scattered Clouds,230,2013-10-13 20:54:00
4:13 PM,51.8,26.6,38,30.30,10.0,WSW,6.9,16.1,N/A,,Clear,240,2013-10-13 21:13:00
4:33 PM,51.8,26.6,38,30.31,10.0,WSW,9.2,-,N/A,,Clear,250,2013-10-13 21:33:00
4:54 PM,50.0,26.6,40,30.31,10.0,WSW,8.1,16.1,N/A,,Clear,250,2013-10-13 21:54:00
5:13 PM,50.0,26.6,40,30.31,10.0,WSW,9.2,-,N/A,,Clear,250,2013-10-13 22:13:00
5:33 PM,48.2,26.6,43,30.31,10.0,West,8.1,-,N/A,,Clear,260,2013-10-13 22:33:00
5:54 PM,46.4,28.4,50,30.31,10.0,SW,4.6,-,N/A,,Clear,230,2013-10-13 22:54:00
6:13 PM,46.4,28.4,50,30.32,10.0,WSW,5.8,-,N/A,,Clear,240,2013-10-13 23:13:00
6:34 PM,44.6,28.4,53,30.32,10.0,WSW,3.5,-,N/A,,Clear,240,2013-10-13 23:34:00
6:54 PM,42.8,28.4,57,30.33,10.0,WSW,3.5,-,N/A,,Clear,240,2013-10-13 23:54:00
7:13 PM,42.8,28.4,57,30.33,10.0,WSW,3.5,-,N/A,,Clear,250,2013-10-14 00:13:00
7:34 PM,42.8,28.4,57,30.34,10.0,WSW,3.5,-,N/A,,Clear,250,2013-10-14 00:34:00
7:53 PM,41.0,28.4,61,30.34,10.0,WSW,3.5,-,N/A,,Clear,250,2013-10-14 00:53:00
8:13 PM,39.2,28.4,65,30.34,10.0,Calm,Calm,-,N/A,,Clear,0,2013-10-14 01:13:00
8:34 PM,37.4,28.4,70,30.35,10.0,West,3.5,-,N/A,,Clear,270,2013-10-14 01:34:00
8:53 PM,39.2,28.4,65,30.35,10.0,West,3.5,-,N/A,,Clear,260,2013-10-14 01:53:00
9:13 PM,39.2,28.4,65,30.36,10.0,West,3.5,-,N/A,,Clear,260,2013-10-14 02:13:00
9:34 PM,37.4,28.4,70,30.36,10.0,Calm,Calm,-,N/A,,Clear,0,2013-10-14 02:34:00
9:53 PM,37.4,28.4,70,30.36,10.0,West,4.6,-,N/A,,Clear,260,2013-10-14 02:53:00
10:13 PM,37.4,28.4,70,30.37,10.0,WSW,4.6,-,N/A,,Clear,250,2013-10-14 03:13:00
10:33 PM,37.4,28.4,70,30.37,10.0,West,4.6,-,N/A,,Clear,270,2013-10-14 03:33:00
10:54 PM,37.4,28.4,70,30.37,10.0,West,4.6,-,N/A,,Clear,260,2013-10-14 03:54:00
11:13 PM,37.4,28.4,70,30.37,10.0,West,4.6,-,N/A,,Clear,280,2013-10-14 04:13:00
11:33 PM,35.6,26.6,70,30.38,10.0,West,3.5,-,N/A,,Clear,280,2013-10-14 04:33:00
11:54 PM,30.2,24.8,80,30.38,10.0,West,4.6,-,N/A,,Clear,280,2013-10-14 04:54:00